Portada
METAR-TAF:

METAR-TAF

Aeropuertos :

Aeropuerto de Bari-Palese

Bari, Italia

latitud: 41-08N, longitud: 016-47E, altitud: 34 m

Observación

El informe se hizo hace 36 minutos, a las 00:50 UTC
Viento 7 kt del oeste
Temperatura 17°C
Humedad 59%
Presión 1010 hPa
Visibilidad 10 km o más
sin nubes por debajo de 1500 m y sin presencia de cumulonimbus.

METAR: LIBD 030050Z 26007KT CAVOK 17/09 Q1010

Hora: 03:26 (01:26 UTC)

Pronóstico

El informe se hizo hace 2 horas y 26 minutos, a las 23:00 UTC
Pronóstico válido del 03 a las 00 UTC al 03 a las 24 UTC
Viento 8 kt del oeste-noroeste
Visibilidad 10 km o más
sin nubes por debajo de 1500 m y sin presencia de cumulonimbus.
Evolucionando progresivamente
del 03 a las 08 UTC al 03 a las 10 UTC
Viento 13 kt del norte-noreste
Evolucionando progresivamente
del 03 a las 18 UTC al 03 a las 20 UTC
Viento 5 kt con dirección variable

TAF: LIBD 022300Z 0300/0324 30008KT CAVOK BECMG 0308/0310 03013KT BECMG 0318/0320 VRB05KT

Observaciones y pronósticos meteorológicos de más de 4000 aeropuertos (mensajes METAR y TAF).

Los puntos amarillos y rojos representan las estaciones disponibles.

Ponga el ratón en el punto deseado para ver el nombre de la estación.

Haga clic para ver las observaciones y los pronósticos meteorológicos.

Para cambiar el mapa : haga clic en los botones verdes con una cruz de color negro para hacer un zoom, en el botón verde con un guión para alejar o en las flechas verdes para mapas adyacentes.


METAR-TAF: